createdAt,value
2022-11-14T00:00:01.164Z,997.24
2022-11-14T00:01:01.144Z,997.26
2022-11-14T00:02:01.119Z,997.26
2022-11-14T00:03:01.185Z,997.26
2022-11-14T00:04:02.087Z,997.23
2022-11-14T00:05:01.077Z,997.25
2022-11-14T00:06:01.077Z,997.19
2022-11-14T00:07:01.117Z,997.25
2022-11-14T00:08:01.150Z,997.21
2022-11-14T00:09:01.062Z,997.21
2022-11-14T00:10:01.039Z,997.22
2022-11-14T00:11:01.026Z,997.20
2022-11-14T00:12:01.052Z,997.18
2022-11-14T00:13:01.002Z,997.18
2022-11-14T00:14:00.980Z,997.19
2022-11-14T00:15:01.005Z,997.15
2022-11-14T00:16:00.979Z,997.17
2022-11-14T00:17:00.965Z,997.14
2022-11-14T00:18:00.975Z,997.17
2022-11-14T00:19:00.933Z,997.14
2022-11-14T00:20:00.998Z,997.14
2022-11-14T00:21:00.919Z,997.04
2022-11-14T00:22:00.930Z,997.11
2022-11-14T00:23:33.890Z,997.13
2022-11-14T00:24:01.425Z,997.06
2022-11-14T00:25:01.162Z,997.11
2022-11-14T00:26:00.988Z,997.04
2022-11-14T00:27:00.896Z,997.10
2022-11-14T00:28:00.951Z,997.04
2022-11-14T00:29:00.926Z,997.03
2022-11-14T00:30:00.896Z,997.05
2022-11-14T00:31:00.916Z,997.09
2022-11-14T00:32:00.896Z,997.02
2022-11-14T00:33:00.966Z,996.99
2022-11-14T00:34:00.830Z,997.02
2022-11-14T00:35:00.879Z,997.04
2022-11-14T00:36:00.923Z,997.07
2022-11-14T00:37:00.916Z,997.00
2022-11-14T00:38:00.915Z,996.97
2022-11-14T00:39:00.873Z,996.97
2022-11-14T00:40:00.780Z,997.01
2022-11-14T00:41:00.788Z,996.97
2022-11-14T00:42:00.822Z,997.03
2022-11-14T00:43:00.729Z,996.95
2022-11-14T00:44:00.767Z,997.01
2022-11-14T00:45:00.706Z,996.89
2022-11-14T00:46:00.698Z,996.94
2022-11-14T00:47:00.707Z,996.90
2022-11-14T00:48:00.685Z,996.89
2022-11-14T00:49:00.669Z,996.89
2022-11-14T00:50:00.703Z,996.93
2022-11-14T00:51:00.725Z,996.93
2022-11-14T00:52:00.643Z,996.83
2022-11-14T00:53:00.638Z,996.80
2022-11-14T00:54:00.661Z,996.80
2022-11-14T00:55:00.766Z,996.88
2022-11-14T00:56:00.612Z,996.82
2022-11-14T00:57:00.627Z,996.84
2022-11-14T00:58:00.623Z,996.80
2022-11-14T00:59:00.549Z,996.77
2022-11-14T01:00:00.592Z,996.75
2022-11-14T01:01:00.588Z,996.82
2022-11-14T01:02:00.548Z,996.75
2022-11-14T01:03:00.580Z,996.66
2022-11-14T01:04:00.563Z,996.78
2022-11-14T01:05:00.511Z,996.70
2022-11-14T01:06:00.569Z,996.66
2022-11-14T01:07:00.530Z,996.73
2022-11-14T01:08:00.537Z,996.69
2022-11-14T01:09:00.534Z,996.75
2022-11-14T01:10:00.493Z,996.70
2022-11-14T01:11:00.548Z,996.79
2022-11-14T01:12:00.511Z,996.77
2022-11-14T01:13:00.506Z,996.79
2022-11-14T01:14:00.443Z,996.69
2022-11-14T01:15:00.451Z,996.69
2022-11-14T01:16:00.460Z,996.70
2022-11-14T01:17:00.573Z,996.68
2022-11-14T01:18:00.436Z,996.74
2022-11-14T01:19:00.446Z,996.61
2022-11-14T01:20:00.424Z,996.68
2022-11-14T01:21:00.433Z,996.66
2022-11-14T01:22:04.852Z,996.68
2022-11-14T01:23:02.370Z,996.63
2022-11-14T01:24:00.879Z,996.64
2022-11-14T01:25:00.770Z,996.63
2022-11-14T01:26:00.624Z,996.61
2022-11-14T01:27:01.110Z,996.66
2022-11-14T01:28:00.475Z,996.67
2022-11-14T01:29:05.603Z,996.66
2022-11-14T01:30:01.377Z,996.66
2022-11-14T01:31:00.307Z,996.61
2022-11-14T01:32:12.724Z,996.64
2022-11-14T01:33:01.937Z,996.67
2022-11-14T01:34:00.628Z,996.59
2022-11-14T01:35:00.330Z,996.59
2022-11-14T01:36:00.325Z,996.63
2022-11-14T01:37:00.347Z,996.57
2022-11-14T01:38:00.399Z,996.54
2022-11-14T01:39:00.282Z,996.61
2022-11-14T01:40:00.259Z,996.55
2022-11-14T01:41:00.241Z,996.55
2022-11-14T01:42:00.644Z,996.54
2022-11-14T01:43:00.395Z,996.48
2022-11-14T01:44:00.274Z,996.50
2022-11-14T01:45:01.022Z,996.49
2022-11-14T01:46:00.681Z,996.50
2022-11-14T01:47:00.642Z,996.44
2022-11-14T01:48:00.695Z,996.45
2022-11-14T01:49:00.414Z,996.44
2022-11-14T01:50:00.389Z,996.41
2022-11-14T01:51:00.206Z,996.40
2022-11-14T01:52:00.295Z,996.43
2022-11-14T01:53:00.628Z,996.45
2022-11-14T01:54:01.789Z,996.47
2022-11-14T01:55:00.440Z,996.43
2022-11-14T01:56:00.050Z,996.39
2022-11-14T01:57:00.086Z,996.38
2022-11-14T01:58:00.059Z,996.34
2022-11-14T01:59:00.092Z,996.36
2022-11-14T02:00:00.016Z,996.33
2022-11-14T02:01:00.022Z,996.33
2022-11-14T02:02:00.140Z,996.34
2022-11-14T02:02:59.967Z,996.19
2022-11-14T02:03:59.965Z,996.28
2022-11-14T02:04:59.982Z,996.28
2022-11-14T02:05:59.935Z,996.30
2022-11-14T02:07:00.019Z,996.31
2022-11-14T02:07:59.937Z,996.15
2022-11-14T02:08:59.917Z,996.25
2022-11-14T02:09:59.922Z,996.25
2022-11-14T02:10:59.925Z,996.22
2022-11-14T02:11:59.922Z,996.21
2022-11-14T02:12:59.900Z,996.13
2022-11-14T02:13:59.904Z,996.16
2022-11-14T02:14:59.947Z,996.20
2022-11-14T02:15:59.883Z,996.08
2022-11-14T02:17:22.642Z,996.06
2022-11-14T02:18:01.912Z,996.07
2022-11-14T02:18:59.802Z,996.09
2022-11-14T02:20:04.824Z,996.07
2022-11-14T02:21:01.766Z,996.08
2022-11-14T02:21:59.808Z,996.02
2022-11-14T02:22:59.782Z,995.95
2022-11-14T02:23:59.757Z,995.97
2022-11-14T02:24:59.802Z,995.92
2022-11-14T02:25:59.754Z,995.90
2022-11-14T02:26:59.769Z,995.88
2022-11-14T02:27:59.803Z,995.88
2022-11-14T02:28:59.708Z,995.89
2022-11-14T02:29:59.701Z,995.92
2022-11-14T02:30:59.796Z,995.96
2022-11-14T02:31:59.735Z,995.95
2022-11-14T02:44:53.098Z,995.96
2022-11-14T02:45:53.172Z,995.91
2022-11-14T02:46:53.147Z,995.97
2022-11-14T02:47:53.263Z,995.95
2022-11-14T02:48:52.949Z,995.94
2022-11-14T02:49:52.908Z,995.96
2022-11-14T02:50:52.927Z,995.98
2022-11-14T02:51:52.890Z,995.81
2022-11-14T02:52:52.895Z,995.83
2022-11-14T02:53:52.934Z,995.84
2022-11-14T02:54:54.595Z,995.80
2022-11-14T02:55:52.864Z,995.81
2022-11-14T02:56:52.834Z,995.84
2022-11-14T02:57:52.850Z,995.76
2022-11-14T02:58:52.814Z,995.82
2022-11-14T02:59:53.984Z,995.84
2022-11-14T03:01:19.032Z,995.77
2022-11-14T03:01:56.034Z,995.72
2022-11-14T03:02:54.053Z,995.76
2022-11-14T03:03:54.015Z,995.75
2022-11-14T03:04:53.927Z,995.74
2022-11-14T03:05:53.982Z,995.73
2022-11-14T03:06:53.954Z,995.74
2022-11-14T03:07:53.947Z,995.80
2022-11-14T03:08:53.933Z,995.78
2022-11-14T03:09:53.946Z,995.64
2022-11-14T03:10:53.864Z,995.71
2022-11-14T03:11:53.864Z,995.64
2022-11-14T03:12:53.883Z,995.59
2022-11-14T03:13:53.896Z,995.56
2022-11-14T03:14:53.857Z,995.58
2022-11-14T03:15:53.845Z,995.55
2022-11-14T03:16:53.902Z,995.45
2022-11-14T03:17:53.820Z,995.47
2022-11-14T03:18:53.872Z,995.47
2022-11-14T03:19:53.951Z,995.45
2022-11-14T03:20:53.858Z,995.49
2022-11-14T03:21:53.803Z,995.47
2022-11-14T03:22:53.809Z,995.49
2022-11-14T03:23:53.747Z,995.43
2022-11-14T03:24:53.748Z,995.42
2022-11-14T03:25:53.743Z,995.35
2022-11-14T03:26:53.771Z,995.42
2022-11-14T03:27:53.860Z,995.35
2022-11-14T03:28:53.729Z,995.32
2022-11-14T03:29:53.722Z,995.34
2022-11-14T03:30:53.749Z,995.32
2022-11-14T03:31:53.655Z,995.31
2022-11-14T03:32:53.763Z,995.26
2022-11-14T03:33:53.670Z,995.21
2022-11-14T03:34:53.715Z,995.24
2022-11-14T03:35:53.654Z,995.17
2022-11-14T03:36:53.660Z,995.18
2022-11-14T03:37:56.326Z,995.24
2022-11-14T03:38:54.654Z,995.13
2022-11-14T03:39:53.632Z,995.20
2022-11-14T03:40:53.676Z,995.28
2022-11-14T03:41:53.639Z,995.24
2022-11-14T03:42:54.655Z,995.28
2022-11-14T03:43:53.614Z,995.28
2022-11-14T03:44:53.597Z,995.29
2022-11-14T03:45:53.609Z,995.26
2022-11-14T03:46:53.566Z,995.30
2022-11-14T03:47:54.578Z,995.24
2022-11-14T03:48:53.491Z,995.32
2022-11-14T03:49:53.543Z,995.31
2022-11-14T03:50:53.565Z,995.23
2022-11-14T03:51:53.501Z,995.25
2022-11-14T03:52:53.558Z,995.22
2022-11-14T03:53:53.484Z,995.20
2022-11-14T03:54:53.499Z,995.13
2022-11-14T03:55:53.501Z,995.13
2022-11-14T03:56:53.449Z,995.11
2022-11-14T03:57:53.501Z,995.11
2022-11-14T03:58:53.465Z,995.07
2022-11-14T03:59:53.404Z,995.14
2022-11-14T04:00:53.441Z,995.12
2022-11-14T04:01:53.411Z,995.07
2022-11-14T04:02:53.357Z,995.08
2022-11-14T04:03:53.370Z,995.10
2022-11-14T04:04:53.422Z,995.15
2022-11-14T04:05:53.372Z,995.19
2022-11-14T04:06:53.554Z,995.10
2022-11-14T04:07:53.407Z,995.12
2022-11-14T04:08:53.333Z,995.10
2022-11-14T04:09:53.304Z,995.00
2022-11-14T04:10:53.344Z,995.13
2022-11-14T04:11:53.300Z,995.08
2022-11-14T04:12:53.290Z,995.09
2022-11-14T04:13:53.289Z,995.11
2022-11-14T04:14:53.271Z,994.99
2022-11-14T04:15:53.291Z,995.05
2022-11-14T04:16:53.260Z,994.97
2022-11-14T04:17:53.241Z,994.95
2022-11-14T04:18:53.372Z,994.98
2022-11-14T04:19:53.225Z,994.97
2022-11-14T04:20:53.230Z,994.90
2022-11-14T04:21:53.188Z,994.92
2022-11-14T04:22:53.265Z,994.93
2022-11-14T04:23:53.222Z,994.95
2022-11-14T04:24:53.194Z,994.92
2022-11-14T04:25:53.151Z,994.93
2022-11-14T04:26:53.127Z,994.93
2022-11-14T04:27:53.173Z,994.88
2022-11-14T04:28:53.236Z,994.90
2022-11-14T04:29:53.189Z,994.90
2022-11-14T04:30:53.174Z,994.92
2022-11-14T04:31:53.108Z,994.87
2022-11-14T04:32:53.116Z,994.91
2022-11-14T04:33:53.097Z,994.88
2022-11-14T04:34:53.109Z,994.88
2022-11-14T04:35:53.047Z,994.91
2022-11-14T04:36:53.063Z,994.92
2022-11-14T04:37:53.024Z,994.86
2022-11-14T04:38:53.121Z,994.91
2022-11-14T04:39:53.056Z,994.88
2022-11-14T04:40:53.030Z,994.85
2022-11-14T04:41:53.070Z,994.85
2022-11-14T04:42:53.032Z,994.81
2022-11-14T04:43:52.980Z,994.89
2022-11-14T04:44:53.015Z,994.86
2022-11-14T04:45:52.926Z,994.85
2022-11-14T04:46:52.940Z,994.83
2022-11-14T04:47:52.932Z,994.75
2022-11-14T04:48:52.934Z,994.79
2022-11-14T04:49:52.931Z,994.81
2022-11-14T04:50:52.936Z,994.83
2022-11-14T04:51:52.959Z,994.84
2022-11-14T04:52:52.887Z,994.75
2022-11-14T04:53:52.917Z,994.74
2022-11-14T04:54:52.926Z,994.75
2022-11-14T04:55:52.851Z,994.74
2022-11-14T04:56:52.860Z,994.72
2022-11-14T04:57:52.827Z,994.73
2022-11-14T04:58:52.812Z,994.72
2022-11-14T04:59:52.832Z,994.74
2022-11-14T05:00:52.776Z,994.69
2022-11-14T05:01:52.868Z,994.73
2022-11-14T05:02:52.768Z,994.74
2022-11-14T05:03:52.889Z,994.70
2022-11-14T05:04:52.751Z,994.72
2022-11-14T05:05:52.759Z,994.72
2022-11-14T05:06:52.817Z,994.79
2022-11-14T05:07:52.729Z,994.77
2022-11-14T05:08:52.779Z,994.74
2022-11-14T05:09:52.732Z,994.65
2022-11-14T05:10:52.718Z,994.72
2022-11-14T05:11:52.695Z,994.67
2022-11-14T05:12:52.711Z,994.69
2022-11-14T05:13:52.684Z,994.63
2022-11-14T05:14:52.674Z,994.65
2022-11-14T05:15:52.650Z,994.62
2022-11-14T05:16:52.675Z,994.67
2022-11-14T05:17:52.648Z,994.59
2022-11-14T05:18:52.650Z,994.59
2022-11-14T05:19:52.629Z,994.52
2022-11-14T05:20:52.618Z,994.51
2022-11-14T05:21:52.640Z,994.55
2022-11-14T05:22:52.555Z,994.58
2022-11-14T05:23:52.599Z,994.58
2022-11-14T05:24:52.574Z,994.50
2022-11-14T05:25:57.607Z,994.49
2022-11-14T05:26:54.530Z,994.51
2022-11-14T05:27:53.559Z,994.47
2022-11-14T05:28:52.605Z,994.52
2022-11-14T05:29:52.553Z,994.47
2022-11-14T05:30:52.516Z,994.47
2022-11-14T05:31:52.509Z,994.41
2022-11-14T05:32:52.597Z,994.42
2022-11-14T05:33:52.581Z,994.49
2022-11-14T05:34:52.476Z,994.47
2022-11-14T05:35:53.453Z,994.42
2022-11-14T05:36:52.518Z,994.45
2022-11-14T05:37:57.384Z,994.37
2022-11-14T05:38:54.594Z,994.29
2022-11-14T05:39:52.424Z,994.32
2022-11-14T05:40:52.397Z,994.34
2022-11-14T05:41:52.400Z,994.28
2022-11-14T05:42:52.374Z,994.38
2022-11-14T05:43:52.386Z,994.34
2022-11-14T05:44:52.380Z,994.39
2022-11-14T05:45:52.349Z,994.35
2022-11-14T05:46:52.332Z,994.33
2022-11-14T05:47:52.328Z,994.29
2022-11-14T05:48:52.360Z,994.18
2022-11-14T05:49:52.293Z,994.23
2022-11-14T05:50:52.262Z,994.21
2022-11-14T05:51:52.325Z,994.18
2022-11-14T05:52:52.260Z,994.25
2022-11-14T05:53:52.272Z,994.25
2022-11-14T05:54:52.276Z,994.23
2022-11-14T05:55:52.297Z,994.26
2022-11-14T05:56:52.231Z,994.18
2022-11-14T05:57:52.245Z,994.20
2022-11-14T09:53:34.626Z,994.30
2022-11-14T09:54:35.882Z,994.25
2022-11-14T09:55:37.423Z,994.22
2022-11-14T09:56:36.658Z,994.19
2022-11-14T09:57:35.653Z,993.96
2022-11-14T09:58:35.595Z,993.90
2022-11-14T09:59:35.669Z,993.95
2022-11-14T10:00:35.608Z,994.03
2022-11-14T10:01:35.631Z,994.11
2022-11-14T10:02:35.626Z,994.05
2022-11-14T10:03:35.571Z,993.96
2022-11-14T10:04:35.628Z,994.02
2022-11-14T10:05:35.621Z,993.97
2022-11-14T10:06:35.538Z,994.09
2022-11-14T10:07:35.669Z,994.06
2022-11-14T10:08:35.555Z,994.08
2022-11-14T10:09:35.561Z,994.09
2022-11-14T10:10:38.650Z,994.07
2022-11-14T10:11:36.526Z,993.96
2022-11-14T10:12:35.476Z,993.93
2022-11-14T10:13:35.496Z,993.93
2022-11-14T10:14:35.468Z,993.79
2022-11-14T10:15:35.473Z,993.84
2022-11-14T10:16:35.418Z,993.96
2022-11-14T10:17:35.461Z,994.01
2022-11-14T10:18:35.449Z,993.87
2022-11-14T10:19:40.000Z,993.76
2022-11-14T10:20:37.432Z,993.72
2022-11-14T10:21:35.429Z,993.71
2022-11-14T10:22:35.402Z,993.70
2022-11-14T10:23:36.456Z,993.69
2022-11-14T10:24:35.380Z,993.65
2022-11-14T10:25:38.346Z,993.68
2022-11-14T10:26:37.366Z,993.77
2022-11-14T10:27:35.323Z,993.82
2022-11-14T10:28:35.324Z,993.86
2022-11-14T10:29:35.350Z,993.90
2022-11-14T10:30:35.281Z,993.94
2022-11-14T10:31:35.276Z,993.94
2022-11-14T10:32:35.328Z,994.00
2022-11-14T10:33:35.293Z,993.94
2022-11-14T10:34:35.285Z,993.99
2022-11-14T10:35:35.471Z,993.92
2022-11-14T10:36:36.272Z,993.98
2022-11-14T10:37:35.265Z,993.93
2022-11-14T10:38:35.267Z,993.87
2022-11-14T10:39:35.302Z,993.83
2022-11-14T10:40:35.233Z,993.82
2022-11-14T10:41:55.906Z,993.86
2022-11-14T10:42:37.214Z,993.81
2022-11-14T10:43:35.168Z,993.67
2022-11-14T10:44:35.231Z,993.67
2022-11-14T10:45:35.193Z,993.63
2022-11-14T10:46:35.168Z,993.62
2022-11-14T10:47:35.146Z,993.56
2022-11-14T10:48:35.130Z,993.56
2022-11-14T10:49:35.116Z,993.57
2022-11-14T10:50:35.119Z,993.58
2022-11-14T10:51:35.087Z,993.52
2022-11-14T10:52:35.079Z,993.51
2022-11-14T10:53:35.036Z,993.47
2022-11-14T10:54:35.103Z,993.50
2022-11-14T10:55:57.742Z,993.48
2022-11-14T10:56:37.033Z,993.52
2022-11-14T10:57:35.047Z,993.51
2022-11-14T10:58:47.365Z,993.54
2022-11-14T10:59:37.053Z,993.57
2022-11-14T11:00:35.024Z,993.59
2022-11-14T11:01:35.159Z,993.52
2022-11-14T11:02:36.417Z,993.57
2022-11-14T11:03:36.036Z,993.56
2022-11-14T11:04:34.970Z,993.54
2022-11-14T11:05:34.953Z,993.53
2022-11-14T11:06:34.947Z,993.55
2022-11-14T11:07:34.985Z,993.51
2022-11-14T11:08:44.114Z,993.54
2022-11-14T11:09:40.745Z,993.46
2022-11-14T11:10:35.924Z,993.52
2022-11-14T11:11:34.938Z,993.55
2022-11-14T11:12:34.916Z,993.53
2022-11-14T11:13:34.855Z,993.52
2022-11-14T11:14:34.918Z,993.54
2022-11-14T11:15:34.857Z,993.55
2022-11-14T11:16:34.849Z,993.58
2022-11-14T11:17:40.061Z,993.57
2022-11-14T11:18:36.850Z,993.60
2022-11-14T11:19:34.866Z,993.50
2022-11-14T11:20:34.824Z,993.57
2022-11-14T11:21:34.830Z,993.50
2022-11-14T11:22:34.804Z,993.44
2022-11-14T11:23:34.786Z,993.44
2022-11-14T11:24:35.777Z,993.45
2022-11-14T11:25:34.823Z,993.50
2022-11-14T11:26:34.740Z,993.47
2022-11-14T11:27:34.752Z,993.52
2022-11-14T11:28:34.723Z,993.48
2022-11-14T11:29:34.771Z,993.47
2022-11-14T11:30:34.714Z,993.44
2022-11-14T11:31:34.688Z,993.46
2022-11-14T11:32:34.710Z,993.48
2022-11-14T11:33:34.812Z,993.57
2022-11-14T11:34:34.723Z,993.58
2022-11-14T11:35:34.667Z,993.62
2022-11-14T11:36:34.665Z,993.58
2022-11-14T11:37:34.638Z,993.53
2022-11-14T11:38:34.947Z,993.52
2022-11-14T11:39:34.634Z,993.53
2022-11-14T11:40:34.627Z,993.52
2022-11-14T11:43:23.783Z,993.58
2022-11-14T11:43:39.275Z,993.52
2022-11-14T11:44:35.564Z,993.59
2022-11-14T11:45:34.584Z,993.58
2022-11-14T11:46:34.552Z,993.60
2022-11-14T11:47:34.588Z,993.48
2022-11-14T11:48:34.541Z,993.51
2022-11-14T11:49:34.505Z,993.48
2022-11-14T11:50:34.526Z,993.42
2022-11-14T11:51:34.508Z,993.45
2022-11-14T11:52:34.501Z,993.44
2022-11-14T11:53:34.498Z,993.34
2022-11-14T11:54:34.496Z,993.26
2022-11-14T11:55:34.504Z,993.22
2022-11-14T11:56:34.475Z,993.27
2022-11-14T11:57:34.481Z,993.24
2022-11-14T11:58:34.464Z,993.25
2022-11-14T11:59:34.464Z,993.19
2022-11-14T12:00:34.413Z,993.19
2022-11-14T12:01:34.423Z,993.14
2022-11-14T12:02:34.459Z,993.08
2022-11-14T12:03:34.960Z,993.09
2022-11-14T12:04:34.399Z,993.10
2022-11-14T12:05:34.353Z,993.10
2022-11-14T12:06:34.386Z,993.09
2022-11-14T12:07:34.368Z,993.09
2022-11-14T12:08:34.370Z,993.09
2022-11-14T12:10:08.287Z,993.03
2022-11-14T12:10:36.341Z,993.00
2022-11-14T12:11:34.307Z,992.96
2022-11-14T12:12:34.304Z,992.97
2022-11-14T12:13:34.309Z,992.97
2022-11-14T12:14:34.289Z,992.95
2022-11-14T12:15:34.254Z,993.00
2022-11-14T12:16:34.304Z,993.00
2022-11-14T12:17:34.258Z,992.97
2022-11-14T12:18:34.204Z,992.88
2022-11-14T12:19:34.236Z,992.82
2022-11-14T12:20:34.195Z,992.78
2022-11-14T12:21:34.192Z,992.78
2022-11-14T12:22:34.238Z,992.78
2022-11-14T12:23:34.286Z,992.82
2022-11-14T12:26:22.415Z,992.68
2022-11-14T12:27:20.711Z,992.68
2022-11-14T12:28:34.189Z,992.78
2022-11-14T12:31:27.814Z,992.82
2022-11-14T12:37:23.948Z,992.74
2022-11-14T12:38:34.143Z,992.79
2022-11-14T12:39:28.429Z,992.82
2022-11-14T12:40:23.958Z,992.80
2022-11-14T12:42:14.980Z,992.79
2022-11-14T12:44:12.387Z,992.80
2022-11-14T12:45:12.454Z,992.79
2022-11-14T12:46:12.095Z,992.89
2022-11-14T12:51:36.708Z,992.57
2022-11-14T12:53:38.720Z,992.52
2022-11-14T12:53:53.229Z,992.58
2022-11-14T12:55:55.196Z,992.54
2022-11-14T13:07:44.324Z,992.31
2022-11-14T13:08:57.379Z,992.25
2022-11-14T13:14:43.404Z,992.25
2022-11-14T13:17:42.072Z,992.18
2022-11-14T13:25:17.715Z,992.06
2022-11-14T13:31:33.538Z,992.08
2022-11-14T13:41:55.064Z,991.82
2022-11-14T13:43:10.158Z,991.78
2022-11-14T13:44:21.560Z,991.76
2022-11-14T13:45:50.245Z,991.78
2022-11-14T13:50:23.353Z,991.79
2022-11-14T13:57:38.130Z,991.81
2022-11-14T14:02:43.903Z,991.80
2022-11-14T14:03:11.561Z,991.64
2022-11-14T14:05:48.079Z,991.65
2022-11-14T14:08:34.430Z,991.73
2022-11-14T14:09:47.416Z,991.74
2022-11-14T14:12:15.438Z,991.62
2022-11-14T14:16:39.022Z,991.62
2022-11-14T14:17:47.119Z,991.61
2022-11-14T14:23:46.805Z,991.65
2022-11-14T14:24:56.594Z,991.70
2022-11-14T14:27:43.390Z,991.68
2022-11-14T14:28:52.485Z,991.67
2022-11-14T14:29:53.315Z,991.71
2022-11-14T14:30:51.164Z,991.74
2022-11-14T14:31:51.122Z,991.67
2022-11-14T14:33:13.824Z,991.71
2022-11-14T14:34:18.283Z,991.70
2022-11-14T14:34:46.960Z,991.73
2022-11-14T14:36:17.324Z,991.69
2022-11-14T14:37:17.347Z,991.66
2022-11-14T14:37:48.670Z,991.73
2022-11-14T14:39:20.175Z,991.76
2022-11-14T14:39:54.025Z,991.72
2022-11-14T14:42:43.318Z,991.71
2022-11-14T14:45:11.237Z,991.67
2022-11-14T14:50:02.678Z,991.56
2022-11-14T14:52:15.927Z,991.56
2022-11-14T14:52:33.799Z,991.57
2022-11-14T14:57:27.239Z,991.47
2022-11-14T15:00:00.622Z,991.45
2022-11-14T15:03:39.609Z,991.37
2022-11-14T15:05:25.877Z,991.38
2022-11-14T15:08:41.358Z,991.21
2022-11-14T15:09:56.685Z,991.24
2022-11-14T15:24:07.777Z,991.20
2022-11-14T15:25:24.137Z,991.20
2022-11-14T15:36:02.414Z,991.01
2022-11-14T15:40:02.424Z,990.98
2022-11-14T15:47:39.193Z,991.07
2022-11-14T15:53:52.098Z,991.06
2022-11-14T15:56:51.308Z,991.04
2022-11-14T16:04:13.132Z,990.99
2022-11-14T16:06:52.651Z,991.00
2022-11-14T16:12:52.829Z,990.99
2022-11-14T16:25:03.905Z,990.87
2022-11-14T16:26:16.025Z,990.87
2022-11-14T16:28:31.715Z,990.80
2022-11-14T16:29:47.310Z,990.78
2022-11-14T16:30:45.734Z,990.74
2022-11-14T16:31:36.378Z,990.73
2022-11-14T16:32:35.956Z,990.79
2022-11-14T16:33:36.814Z,990.73
2022-11-14T16:34:41.868Z,990.64
2022-11-14T16:35:51.271Z,990.79
2022-11-14T16:36:42.229Z,990.82
2022-11-14T16:40:04.762Z,990.78
2022-11-14T16:41:07.803Z,990.76
2022-11-14T16:42:05.174Z,990.71
2022-11-14T16:43:17.749Z,990.71
2022-11-14T16:44:37.304Z,990.64
2022-11-14T16:45:22.973Z,990.67
2022-11-14T16:47:44.031Z,990.79
2022-11-14T16:50:12.039Z,990.74
2022-11-14T16:52:05.272Z,990.74
2022-11-14T16:52:23.476Z,990.73
2022-11-14T16:53:20.001Z,990.78
2022-11-14T16:54:28.721Z,990.72
2022-11-14T16:55:13.383Z,990.71
2022-11-14T16:56:15.277Z,990.61
2022-11-14T16:58:56.281Z,990.74
2022-11-14T17:00:00.398Z,990.70
2022-11-14T17:01:53.301Z,990.72
2022-11-14T17:05:05.182Z,990.73
2022-11-14T17:07:32.308Z,990.66
2022-11-14T17:08:44.426Z,990.69
2022-11-14T17:11:47.755Z,990.66
2022-11-14T17:14:24.179Z,990.70
2022-11-14T17:17:08.089Z,990.70
2022-11-14T17:18:21.792Z,990.69
2022-11-14T17:24:03.895Z,990.73
2022-11-14T17:25:11.749Z,990.70
2022-11-14T17:26:07.453Z,990.68
2022-11-14T17:27:05.060Z,990.70
2022-11-14T17:28:05.758Z,990.65
2022-11-14T17:29:05.449Z,990.61
2022-11-14T17:30:05.499Z,990.63
2022-11-14T17:31:11.103Z,990.61
2022-11-14T17:32:07.118Z,990.58
2022-11-14T17:33:07.088Z,990.54
2022-11-14T17:34:40.602Z,990.46
2022-11-14T17:35:09.637Z,990.49
2022-11-14T17:36:05.403Z,990.46
2022-11-14T17:37:11.883Z,990.40
2022-11-14T17:38:08.242Z,990.42
2022-11-14T17:39:17.809Z,990.41
2022-11-14T17:40:04.962Z,990.38
2022-11-14T17:41:06.573Z,990.43
2022-11-14T17:42:05.318Z,990.37
2022-11-14T17:43:05.348Z,990.40
2022-11-14T17:44:10.595Z,990.37
2022-11-14T17:45:05.336Z,990.38
2022-11-14T17:46:04.902Z,990.43
2022-11-14T17:47:05.002Z,990.44
2022-11-14T17:48:05.423Z,990.40
2022-11-14T17:49:10.126Z,990.39
2022-11-14T17:50:05.052Z,990.41
2022-11-14T17:51:04.949Z,990.35
2022-11-14T17:52:05.212Z,990.37
2022-11-14T17:53:05.035Z,990.31
2022-11-14T17:54:05.392Z,990.37
2022-11-14T17:55:05.457Z,990.35
2022-11-14T17:56:06.829Z,990.40
2022-11-14T17:57:05.077Z,990.37
2022-11-14T17:58:11.476Z,990.35
2022-11-14T17:59:05.920Z,990.38
2022-11-14T18:00:13.355Z,990.40
2022-11-14T18:01:18.341Z,990.31
2022-11-14T18:02:35.754Z,990.37
2022-11-14T18:03:38.509Z,990.34
2022-11-14T18:04:10.331Z,990.37
2022-11-14T18:06:02.604Z,990.31
2022-11-14T18:06:41.230Z,990.36
2022-11-14T18:07:51.632Z,990.39
2022-11-14T18:10:01.827Z,990.38
2022-11-14T18:11:11.689Z,990.36
2022-11-14T18:12:09.553Z,990.28
2022-11-14T18:13:01.980Z,990.26
2022-11-14T18:14:02.024Z,990.28
2022-11-14T18:15:36.673Z,990.31
2022-11-14T18:16:03.770Z,990.31
2022-11-14T18:17:30.914Z,990.25
2022-11-14T18:18:11.918Z,990.28
2022-11-14T18:19:03.235Z,990.24
2022-11-14T18:20:18.412Z,990.28
2022-11-14T18:21:06.065Z,990.30
2022-11-14T18:23:39.890Z,990.28
2022-11-14T18:26:54.536Z,990.27
2022-11-14T18:29:01.843Z,990.28
2022-11-14T18:31:56.022Z,990.22
2022-11-14T18:36:35.770Z,990.27
2022-11-14T18:37:37.068Z,990.16
2022-11-14T18:38:36.635Z,990.21
2022-11-14T18:39:36.617Z,990.26
2022-11-14T18:41:57.437Z,990.27
2022-11-14T18:41:59.106Z,990.26
2022-11-14T18:43:00.043Z,990.21
2022-11-14T18:43:59.081Z,990.19
2022-11-14T18:44:59.404Z,990.22
2022-11-14T18:45:59.099Z,990.24
